createdAt,value
2023-04-09T00:05:04.024Z,98573.94
2023-04-09T00:10:25.601Z,98581.16
2023-04-09T00:22:02.051Z,98574.41
2023-04-09T00:27:23.765Z,98559.06
2023-04-09T00:32:54.588Z,98573.34
2023-04-09T00:38:17.213Z,98575.22
2023-04-09T00:43:38.791Z,98580.00
2023-04-09T00:49:45.400Z,98579.66
2023-04-09T01:01:23.171Z,98571.16
2023-04-09T01:07:11.763Z,98578.78
2023-04-09T01:12:48.586Z,98577.69
2023-04-09T01:18:23.481Z,98567.91
2023-04-09T01:23:52.679Z,98576.84
2023-04-09T01:29:16.043Z,98576.41
2023-04-09T01:34:39.067Z,98572.03
2023-04-09T01:40:01.674Z,98575.56
2023-04-09T01:45:23.683Z,98570.22
2023-04-09T01:50:45.993Z,98570.56
2023-04-09T01:56:08.604Z,98562.75
2023-04-09T02:01:34.110Z,98564.47
2023-04-09T02:07:04.304Z,98567.97
2023-04-09T02:12:26.181Z,98558.72
2023-04-09T02:17:48.697Z,98565.22
2023-04-09T02:23:10.514Z,98571.88
2023-04-09T02:28:32.341Z,98564.13
2023-04-09T02:33:54.390Z,98555.06
2023-04-09T02:39:16.573Z,98560.59
2023-04-09T02:44:38.056Z,98559.13
2023-04-09T02:50:00.355Z,98557.63
2023-04-09T02:55:25.459Z,98563.38
2023-04-09T03:00:47.177Z,98567.84
2023-04-09T03:06:09.011Z,98563.25
2023-04-09T03:11:30.651Z,98561.94
2023-04-09T03:16:52.241Z,98544.78
2023-04-09T03:22:14.189Z,98553.81
2023-04-09T03:27:36.526Z,98544.03
2023-04-09T03:58:12.671Z,98546.25
2023-04-09T04:03:34.556Z,98536.09
2023-04-09T04:09:17.863Z,98542.94
2023-04-09T04:14:59.472Z,98546.44
2023-04-09T04:33:04.359Z,98578.41
2023-04-09T04:38:34.882Z,98580.31
2023-04-09T04:44:00.370Z,98590.31
2023-04-09T04:49:21.928Z,98583.28
2023-04-09T04:54:46.512Z,98590.16
2023-04-09T05:00:14.174Z,98588.31
2023-04-09T05:05:36.518Z,98582.28
2023-04-09T05:11:30.351Z,98589.00
2023-04-09T05:16:52.470Z,98582.88
2023-04-09T05:22:18.624Z,98585.47
2023-04-09T05:27:41.225Z,98581.22
2023-04-09T05:33:03.083Z,98591.94
2023-04-09T05:38:26.220Z,98580.09
2023-04-09T05:43:51.846Z,98591.97
2023-04-09T05:49:14.420Z,98588.50
2023-04-09T05:54:38.412Z,98601.47
2023-04-09T06:00:03.689Z,98607.22
2023-04-09T06:05:37.836Z,98614.78
2023-04-09T06:10:59.652Z,98614.59
2023-04-09T06:16:21.318Z,98615.16
2023-04-09T06:21:42.817Z,98623.34
2023-04-09T06:27:04.644Z,98617.84
2023-04-09T06:32:27.273Z,98627.72
2023-04-09T06:44:05.585Z,98626.00
2023-04-09T06:50:05.940Z,98631.53
2023-04-09T06:55:28.615Z,98632.25
2023-04-09T07:01:32.786Z,98646.75
2023-04-09T07:07:23.259Z,98653.09
2023-04-09T07:12:53.348Z,98644.44
2023-04-09T07:18:59.834Z,98658.41
2023-04-09T07:24:32.847Z,98670.22
2023-04-09T07:29:58.530Z,98662.72
2023-04-09T07:36:23.094Z,98662.94
2023-04-09T07:41:51.303Z,98653.44
2023-04-09T07:47:49.311Z,98656.50
2023-04-09T07:53:19.079Z,98655.41
2023-04-09T07:58:40.002Z,98656.13
2023-04-09T08:04:01.483Z,98659.81
2023-04-09T08:09:22.835Z,98674.22
2023-04-09T08:14:44.621Z,98679.44
2023-04-09T08:20:06.337Z,98673.94
2023-04-09T08:25:27.564Z,98683.13
2023-04-09T08:30:48.568Z,98677.63
2023-04-09T08:36:09.505Z,98664.50
2023-04-09T08:41:30.589Z,98671.25
2023-04-09T08:46:51.366Z,98679.84
2023-04-09T08:52:12.063Z,98680.34
2023-04-09T08:57:40.304Z,98681.88
2023-04-09T09:03:08.533Z,98679.91
2023-04-09T09:08:30.726Z,98672.44
2023-04-09T09:13:58.119Z,98669.81
2023-04-09T09:19:24.769Z,98675.56
2023-04-09T09:24:50.322Z,98674.56
2023-04-09T09:30:21.673Z,98678.72
2023-04-09T09:35:50.171Z,98684.44
2023-04-09T09:41:17.078Z,98675.97
2023-04-09T09:46:39.374Z,98679.44
2023-04-09T09:52:00.578Z,98678.38
2023-04-09T09:57:23.699Z,98671.00
2023-04-09T10:02:48.387Z,98665.84
2023-04-09T10:08:09.700Z,98666.31
2023-04-09T10:13:56.598Z,98666.25
2023-04-09T10:19:17.340Z,98664.34
2023-04-09T10:24:38.207Z,98650.00
2023-04-09T10:30:00.332Z,98652.72
2023-04-09T10:35:25.794Z,98645.22
2023-04-09T10:40:50.936Z,98633.38
2023-04-09T10:46:31.328Z,98645.50
2023-04-09T10:51:52.910Z,98640.38
2023-04-09T10:57:14.060Z,98637.59
2023-04-09T11:02:38.133Z,98622.72
2023-04-09T11:08:03.340Z,98633.34
2023-04-09T11:13:24.280Z,98622.59
2023-04-09T11:18:45.520Z,98621.44
2023-04-09T11:24:06.292Z,98626.78
2023-04-09T11:29:27.240Z,98627.63
2023-04-09T11:34:47.870Z,98617.63
2023-04-09T11:40:32.252Z,98626.22
2023-04-09T11:45:53.385Z,98618.16
2023-04-09T11:51:14.048Z,98620.44
2023-04-09T11:56:36.277Z,98617.72
2023-04-09T12:02:00.658Z,98620.47
2023-04-09T12:07:22.535Z,98620.88
2023-04-09T12:12:44.234Z,98626.44
2023-04-09T12:18:08.323Z,98632.25
2023-04-09T12:23:31.457Z,98624.56
2023-04-09T12:28:52.730Z,98635.94
2023-04-09T12:34:13.633Z,98626.31
2023-04-09T12:39:34.540Z,98625.31
2023-04-09T12:44:55.159Z,98618.38
2023-04-09T12:50:16.313Z,98623.81
2023-04-09T12:55:37.382Z,98617.94
2023-04-09T13:00:58.736Z,98618.09
2023-04-09T13:06:19.604Z,98621.19
2023-04-09T13:11:40.813Z,98615.28
2023-04-09T13:17:01.887Z,98624.88
2023-04-09T13:22:22.664Z,98619.41
2023-04-09T13:27:43.472Z,98621.91
2023-04-09T13:33:04.310Z,98612.03
2023-04-09T13:38:24.970Z,98615.56
2023-04-09T13:43:45.943Z,98605.25
2023-04-09T13:49:06.895Z,98615.13
2023-04-09T13:54:27.714Z,98616.06
2023-04-09T13:59:48.599Z,98623.28
2023-04-09T14:05:09.605Z,98613.81
2023-04-09T14:10:30.819Z,98615.78
2023-04-09T14:15:51.736Z,98613.16
2023-04-09T14:21:12.394Z,98618.16
2023-04-09T14:26:33.177Z,98615.78
2023-04-09T14:31:55.991Z,98603.38
2023-04-09T14:37:18.228Z,98606.47
2023-04-09T14:42:40.782Z,98599.38
2023-04-09T14:48:01.521Z,98603.25
2023-04-09T14:53:22.199Z,98594.63
2023-04-09T14:58:42.735Z,98603.38
2023-04-09T15:04:04.738Z,98591.78
2023-04-09T15:09:25.450Z,98591.00
2023-04-09T15:14:46.417Z,98590.28
2023-04-09T15:20:07.907Z,98587.19
2023-04-09T15:25:28.625Z,98587.16
2023-04-09T15:30:49.426Z,98585.22
2023-04-09T15:36:10.586Z,98581.41
2023-04-09T15:41:32.372Z,98582.47
2023-04-09T15:46:53.158Z,98582.59
2023-04-09T15:52:13.925Z,98580.44
2023-04-09T15:57:34.699Z,98577.50
2023-04-09T16:02:55.356Z,98581.81
2023-04-09T16:08:16.117Z,98570.63
2023-04-09T16:13:37.294Z,98586.25
2023-04-09T16:18:58.220Z,98572.69
2023-04-09T16:24:19.975Z,98576.34
2023-04-09T16:29:41.019Z,98574.59
2023-04-09T16:35:02.557Z,98578.56
2023-04-09T16:40:24.508Z,98577.47
2023-04-09T16:45:45.392Z,98576.00
2023-04-09T16:51:06.298Z,98577.16
2023-04-09T16:56:27.514Z,98583.63
2023-04-09T17:01:49.233Z,98580.50
2023-04-09T17:07:10.173Z,98574.97
2023-04-09T17:12:31.342Z,98585.84
2023-04-09T17:17:53.646Z,98597.91
2023-04-09T17:23:14.783Z,98590.75
2023-04-09T17:28:36.173Z,98595.16
2023-04-09T17:33:56.772Z,98608.75
2023-04-09T17:39:18.078Z,98618.22
2023-04-09T17:44:46.830Z,98622.44
2023-04-09T17:50:35.662Z,98633.59
2023-04-09T17:56:16.649Z,98636.34
2023-04-09T18:02:42.523Z,98645.91
2023-04-09T18:09:27.985Z,98645.88
2023-04-09T18:14:32.488Z,98655.13
2023-04-09T18:19:54.548Z,98662.13
2023-04-09T18:25:15.823Z,98649.56
2023-04-09T18:30:38.826Z,98657.06
2023-04-09T18:36:01.341Z,98663.91
2023-04-09T18:41:26.105Z,98665.19
2023-04-09T18:46:47.472Z,98662.34
2023-04-09T18:52:10.273Z,98660.81
2023-04-09T18:57:33.294Z,98654.47
2023-04-09T19:02:54.635Z,98654.06
2023-04-09T19:08:16.543Z,98650.38
2023-04-09T19:13:37.692Z,98656.13
2023-04-09T19:18:58.759Z,98660.38
2023-04-09T19:24:19.486Z,98661.34
2023-04-09T19:29:40.726Z,98652.81
2023-04-09T19:35:04.031Z,98648.72
2023-04-09T19:40:25.725Z,98643.72
2023-04-09T19:45:46.994Z,98645.75
2023-04-09T19:51:08.314Z,98642.28
2023-04-09T19:56:29.210Z,98643.03
2023-04-09T20:01:50.951Z,98646.03
2023-04-09T20:07:12.000Z,98644.72
2023-04-09T20:12:32.759Z,98643.97
2023-04-09T20:17:53.677Z,98647.66
2023-04-09T20:23:16.756Z,98640.81
2023-04-09T20:28:41.377Z,98651.38
2023-04-09T20:34:30.757Z,98655.66
2023-04-09T20:39:51.562Z,98650.81
2023-04-09T20:45:12.572Z,98644.88
2023-04-09T20:50:33.852Z,98644.72
2023-04-09T20:55:54.949Z,98641.19
2023-04-09T21:01:17.496Z,98642.16
2023-04-09T21:07:06.856Z,98642.72
2023-04-09T21:12:29.811Z,98652.00
2023-04-09T21:17:50.864Z,98652.38
2023-04-09T21:23:12.701Z,98652.22
2023-04-09T21:28:33.586Z,98653.19
2023-04-09T21:33:54.790Z,98656.69
2023-04-09T21:39:15.580Z,98654.66
2023-04-09T21:44:36.628Z,98656.16
2023-04-09T21:50:26.409Z,98659.69
2023-04-09T21:55:47.212Z,98661.53
2023-04-09T22:01:13.111Z,98671.75
2023-04-09T22:06:45.783Z,98666.91
2023-04-09T22:12:07.268Z,98673.78
2023-04-09T22:17:28.095Z,98681.06
2023-04-09T22:22:49.175Z,98677.53
2023-04-09T22:28:10.029Z,98680.50
2023-04-09T22:33:31.222Z,98674.75
2023-04-09T22:38:53.062Z,98679.22
2023-04-09T22:44:14.173Z,98686.66
2023-04-09T22:49:35.216Z,98677.56
2023-04-09T22:54:56.542Z,98683.31
2023-04-09T23:00:17.429Z,98675.34
2023-04-09T23:05:38.338Z,98681.66
2023-04-09T23:10:59.339Z,98674.81
2023-04-09T23:16:19.985Z,98669.25
2023-04-09T23:21:40.867Z,98680.38
2023-04-09T23:27:02.399Z,98670.56
2023-04-09T23:32:23.495Z,98678.56
2023-04-09T23:37:44.378Z,98680.41
2023-04-09T23:43:05.106Z,98678.56
2023-04-09T23:48:25.898Z,98678.00
2023-04-09T23:53:46.682Z,98676.38
2023-04-09T23:59:07.693Z,98663.34
